Terminal Aerodrome Forecast
Issued by NWS Newport/Morehead City, NC

Home | Current Version | Previous Version | Text Only | Print | Product List | Glossary On
Versions: 1 2 3 4 5 6 7 8 9 10 11 12 13
000
FTUS42 KMHX 211100
TAFEWN
TAF
KEWN 211140Z 2112/2212 01013G20KT P6SM OVC015
     FM211500 01010G17KT P6SM SCT025 BKN040
     FM211900 01006KT P6SM SKC
     FM220900 00000KT P6SM BKN150=

USA.gov is the U.S. government's official web portal to all federal, state and local government web resources and services.